sensor_id;sensor_type;location;lat;lon;timestamp;pressure;altitude;pressure_sealevel;temperature;humidity
33625;BME280;19962;47.820;1.930;2023-05-08T00:00:34;101087.09;;;17.71;92.26
33625;BME280;19962;47.820;1.930;2023-05-08T00:03:00;101073.50;;;17.70;92.11
33625;BME280;19962;47.820;1.930;2023-05-08T00:05:26;101069.59;;;17.71;92.30
33625;BME280;19962;47.820;1.930;2023-05-08T00:07:52;101077.94;;;17.71;92.33
33625;BME280;19962;47.820;1.930;2023-05-08T00:10:23;101082.59;;;17.60;92.99
33625;BME280;19962;47.820;1.930;2023-05-08T00:12:49;101086.66;;;17.52;93.37
33625;BME280;19962;47.820;1.930;2023-05-08T00:15:15;101084.22;;;17.56;93.38
33625;BME280;19962;47.820;1.930;2023-05-08T00:17:41;101085.44;;;17.70;93.00
33625;BME280;19962;47.820;1.930;2023-05-08T00:20:07;101083.03;;;17.84;92.02
33625;BME280;19962;47.820;1.930;2023-05-08T00:22:34;101078.09;;;17.86;91.58
33625;BME280;19962;47.820;1.930;2023-05-08T00:25:00;101091.53;;;17.72;92.11
33625;BME280;19962;47.820;1.930;2023-05-08T00:27:26;101078.78;;;17.71;92.07
33625;BME280;19962;47.820;1.930;2023-05-08T00:29:52;101081.72;;;17.60;92.66
33625;BME280;19962;47.820;1.930;2023-05-08T00:32:18;101079.88;;;17.70;92.44
33625;BME280;19962;47.820;1.930;2023-05-08T00:34:44;101069.72;;;17.81;91.71
33625;BME280;19962;47.820;1.930;2023-05-08T00:37:10;101081.19;;;17.58;92.26
33625;BME280;19962;47.820;1.930;2023-05-08T00:39:37;101071.97;;;17.52;92.70
33625;BME280;19962;47.820;1.930;2023-05-08T00:42:03;101077.59;;;17.35;93.41
33625;BME280;19962;47.820;1.930;2023-05-08T00:44:29;101082.03;;;17.36;93.72
33625;BME280;19962;47.820;1.930;2023-05-08T00:46:55;101086.94;;;17.51;92.93
33625;BME280;19962;47.820;1.930;2023-05-08T00:49:22;101085.34;;;17.60;92.12
33625;BME280;19962;47.820;1.930;2023-05-08T00:51:51;101086.94;;;17.51;92.36
33625;BME280;19962;47.820;1.930;2023-05-08T00:54:19;101079.88;;;17.70;91.37
33625;BME280;19962;47.820;1.930;2023-05-08T00:56:45;101086.59;;;17.74;90.95
33625;BME280;19962;47.820;1.930;2023-05-08T00:59:13;101090.47;;;17.73;91.03
33625;BME280;19962;47.820;1.930;2023-05-08T01:01:43;101068.91;;;17.85;90.40
33625;BME280;19962;47.820;1.930;2023-05-08T01:04:10;101076.63;;;17.78;90.42
33625;BME280;19962;47.820;1.930;2023-05-08T01:06:36;101075.53;;;17.79;90.41
33625;BME280;19962;47.820;1.930;2023-05-08T01:09:02;101071.66;;;17.80;90.21
33625;BME280;19962;47.820;1.930;2023-05-08T01:14:18;101067.16;;;17.74;89.66
33625;BME280;19962;47.820;1.930;2023-05-08T01:31:10;101086.13;;;17.56;91.28
33625;BME280;19962;47.820;1.930;2023-05-08T01:33:40;101095.09;;;17.63;91.08
33625;BME280;19962;47.820;1.930;2023-05-08T01:36:16;101082.59;;;17.60;90.63
33625;BME280;19962;47.820;1.930;2023-05-08T01:41:38;101084.94;;;17.73;89.99
33625;BME280;19962;47.820;1.930;2023-05-08T01:44:27;101086.59;;;17.74;89.84
33625;BME280;19962;47.820;1.930;2023-05-08T01:46:56;101079.38;;;17.73;89.40
33625;BME280;19962;47.820;1.930;2023-05-08T01:49:27;101081.63;;;17.81;89.47
33625;BME280;19962;47.820;1.930;2023-05-08T01:52:12;101079.44;;;17.83;88.92
33625;BME280;19962;47.820;1.930;2023-05-08T01:55:00;101071.59;;;17.75;89.04
33625;BME280;19962;47.820;1.930;2023-05-08T01:57:29;101073.31;;;17.81;89.02
33625;BME280;19962;47.820;1.930;2023-05-08T02:00:00;101080.44;;;17.72;88.82
33625;BME280;19962;47.820;1.930;2023-05-08T02:02:29;101078.25;;;17.74;88.98
33625;BME280;19962;47.820;1.930;2023-05-08T02:04:57;101083.06;;;17.52;89.72
33625;BME280;19962;47.820;1.930;2023-05-08T02:07:26;101080.28;;;17.52;89.91
33625;BME280;19962;47.820;1.930;2023-05-08T02:09:54;101068.50;;;17.67;89.58
33625;BME280;19962;47.820;1.930;2023-05-08T02:12:22;101076.75;;;17.62;89.66
33625;BME280;19962;47.820;1.930;2023-05-08T02:14:52;101082.28;;;17.62;89.75
33625;BME280;19962;47.820;1.930;2023-05-08T02:17:19;101074.78;;;17.57;89.76
33625;BME280;19962;47.820;1.930;2023-05-08T02:19:46;101077.59;;;17.62;89.48
33625;BME280;19962;47.820;1.930;2023-05-08T02:22:15;101068.50;;;17.67;89.48
33625;BME280;19962;47.820;1.930;2023-05-08T02:24:44;101070.41;;;17.66;89.22
33625;BME280;19962;47.820;1.930;2023-05-08T02:27:11;101074.50;;;17.59;89.48
33625;BME280;19962;47.820;1.930;2023-05-08T02:29:38;101067.94;;;17.70;89.13
33625;BME280;19962;47.820;1.930;2023-05-08T02:32:06;101065.50;;;17.73;88.71
33625;BME280;19962;47.820;1.930;2023-05-08T02:34:34;101058.13;;;17.57;89.58
33625;BME280;19962;47.820;1.930;2023-05-08T02:37:02;101060.94;;;17.62;89.01
33625;BME280;19962;47.820;1.930;2023-05-08T02:39:30;101058.44;;;17.61;89.31
33625;BME280;19962;47.820;1.930;2023-05-08T02:41:59;101059.94;;;17.73;88.78
33625;BME280;19962;47.820;1.930;2023-05-08T02:44:25;101058.06;;;17.84;88.13
33625;BME280;19962;47.820;1.930;2023-05-08T02:52:18;101057.22;;;17.78;88.07
33625;BME280;19962;47.820;1.930;2023-05-08T03:00:30;101040.88;;;17.55;88.89
33625;BME280;19962;47.820;1.930;2023-05-08T03:03:06;101044.81;;;17.59;88.97
33625;BME280;19962;47.820;1.930;2023-05-08T03:05:36;101047.38;;;17.66;88.35
33625;BME280;19962;47.820;1.930;2023-05-08T03:08:13;101043.22;;;17.68;88.19
33625;BME280;19962;47.820;1.930;2023-05-08T03:10:43;101046.56;;;17.65;87.89
33625;BME280;19962;47.820;1.930;2023-05-08T03:13:10;101044.72;;;17.49;88.60
33625;BME280;19962;47.820;1.930;2023-05-08T03:18:15;101056.34;;;17.46;88.68
33625;BME280;19962;47.820;1.930;2023-05-08T03:20:48;101044.63;;;17.39;88.86
33625;BME280;19962;47.820;1.930;2023-05-08T03:23:18;101041.19;;;17.32;89.06
33625;BME280;19962;47.820;1.930;2023-05-08T03:25:45;101045.09;;;17.31;88.86
33625;BME280;19962;47.820;1.930;2023-05-08T03:28:12;101048.19;;;17.08;89.83
33625;BME280;19962;47.820;1.930;2023-05-08T03:30:40;101049.88;;;17.14;90.14
33625;BME280;19962;47.820;1.930;2023-05-08T03:33:07;101043.25;;;17.15;89.95
33625;BME280;19962;47.820;1.930;2023-05-08T03:35:38;101042.81;;;17.28;89.19
33625;BME280;19962;47.820;1.930;2023-05-08T03:38:05;101040.84;;;17.23;89.05
33625;BME280;19962;47.820;1.930;2023-05-08T03:40:33;101047.91;;;17.09;89.49
33625;BME280;19962;47.820;1.930;2023-05-08T03:43:07;101043.88;;;16.95;90.30
33625;BME280;19962;47.820;1.930;2023-05-08T03:45:38;101045.84;;;17.00;89.92
33625;BME280;19962;47.820;1.930;2023-05-08T03:48:07;101045.81;;;16.95;90.04
33625;BME280;19962;47.820;1.930;2023-05-08T03:50:37;101053.63;;;16.98;89.92
33625;BME280;19962;47.820;1.930;2023-05-08T03:53:03;101046.81;;;17.10;89.61
33625;BME280;19962;47.820;1.930;2023-05-08T03:55:30;101042.31;;;17.04;89.24
33625;BME280;19962;47.820;1.930;2023-05-08T03:58:31;101037.59;;;17.05;89.06
33625;BME280;19962;47.820;1.930;2023-05-08T04:01:17;101040.81;;;16.97;89.56
33625;BME280;19962;47.820;1.930;2023-05-08T04:04:00;101037.50;;;16.95;89.05
33625;BME280;19962;47.820;1.930;2023-05-08T04:06:36;101042.47;;;16.71;89.69
33625;BME280;19962;47.820;1.930;2023-05-08T04:09:12;101044.16;;;16.72;90.04
33625;BME280;19962;47.820;1.930;2023-05-08T04:12:14;101048.22;;;16.65;90.30
33625;BME280;19962;47.820;1.930;2023-05-08T04:14:54;101052.09;;;16.64;90.48
33625;BME280;19962;47.820;1.930;2023-05-08T04:17:48;101055.09;;;16.62;89.89
33625;BME280;19962;47.820;1.930;2023-05-08T04:20:18;101052.34;;;16.62;90.26
33625;BME280;19962;47.820;1.930;2023-05-08T04:22:46;101056.78;;;16.63;90.30
33625;BME280;19962;47.820;1.930;2023-05-08T04:25:15;101062.00;;;16.60;90.00
33625;BME280;19962;47.820;1.930;2023-05-08T04:27:43;101055.81;;;16.53;89.98
33625;BME280;19962;47.820;1.930;2023-05-08T04:30:09;101052.66;;;16.44;89.96
33625;BME280;19962;47.820;1.930;2023-05-08T04:32:37;101063.31;;;16.36;90.52
33625;BME280;19962;47.820;1.930;2023-05-08T04:35:04;101060.53;;;16.36;90.40
33625;BME280;19962;47.820;1.930;2023-05-08T04:37:31;101062.56;;;16.40;89.95
33625;BME280;19962;47.820;1.930;2023-05-08T04:39:57;101056.19;;;16.40;90.36
33625;BME280;19962;47.820;1.930;2023-05-08T04:42:24;101066.59;;;16.33;90.26
33625;BME280;19962;47.820;1.930;2023-05-08T04:44:54;101065.41;;;16.29;90.07
33625;BME280;19962;47.820;1.930;2023-05-08T04:47:20;101061.03;;;16.33;90.49
33625;BME280;19962;47.820;1.930;2023-05-08T04:49:46;101056.94;;;16.35;89.49
33625;BME280;19962;47.820;1.930;2023-05-08T04:52:12;101058.72;;;16.25;89.63
33625;BME280;19962;47.820;1.930;2023-05-08T04:54:38;101060.91;;;16.23;89.95
33625;BME280;19962;47.820;1.930;2023-05-08T04:57:04;101054.00;;;16.42;89.54
33625;BME280;19962;47.820;1.930;2023-05-08T04:59:32;101058.34;;;16.38;88.91
33625;BME280;19962;47.820;1.930;2023-05-08T05:01:58;101073.16;;;16.27;89.58
33625;BME280;19962;47.820;1.930;2023-05-08T05:04:27;101069.47;;;16.21;89.76
33625;BME280;19962;47.820;1.930;2023-05-08T05:06:53;101073.66;;;16.24;89.65
33625;BME280;19962;47.820;1.930;2023-05-08T05:09:19;101071.66;;;16.19;89.53
33625;BME280;19962;47.820;1.930;2023-05-08T05:11:45;101070.81;;;16.19;89.68
33625;BME280;19962;47.820;1.930;2023-05-08T05:14:12;101077.56;;;16.44;89.38
33625;BME280;19962;47.820;1.930;2023-05-08T05:16:38;101079.28;;;16.67;88.28
33625;BME280;19962;47.820;1.930;2023-05-08T05:19:04;101080.81;;;16.58;88.14
33625;BME280;19962;47.820;1.930;2023-05-08T05:21:30;101091.09;;;16.41;88.79
33625;BME280;19962;47.820;1.930;2023-05-08T05:23:56;101087.38;;;16.52;88.87
33625;BME280;19962;47.820;1.930;2023-05-08T05:26:22;101089.81;;;16.70;88.11
33625;BME280;19962;47.820;1.930;2023-05-08T05:28:48;101092.38;;;16.93;87.38
33625;BME280;19962;47.820;1.930;2023-05-08T05:31:15;101092.28;;;16.88;87.49
33625;BME280;19962;47.820;1.930;2023-05-08T05:33:41;101095.38;;;16.91;87.48
33625;BME280;19962;47.820;1.930;2023-05-08T05:36:07;101098.34;;;17.06;87.18
33625;BME280;19962;47.820;1.930;2023-05-08T05:38:34;101102.25;;;17.10;86.68
33625;BME280;19962;47.820;1.930;2023-05-08T05:41:00;101111.75;;;17.14;86.40
33625;BME280;19962;47.820;1.930;2023-05-08T05:43:26;101108.16;;;17.19;86.22
33625;BME280;19962;47.820;1.930;2023-05-08T05:45:52;101100.75;;;17.24;85.80
33625;BME280;19962;47.820;1.930;2023-05-08T05:48:20;101109.91;;;17.25;86.04
33625;BME280;19962;47.820;1.930;2023-05-08T05:50:46;101101.22;;;17.16;86.55
33625;BME280;19962;47.820;1.930;2023-05-08T05:53:13;101104.78;;;17.12;87.00
33625;BME280;19962;47.820;1.930;2023-05-08T05:55:40;101099.63;;;16.99;87.88
33625;BME280;19962;47.820;1.930;2023-05-08T05:58:06;101114.91;;;17.01;88.01
33625;BME280;19962;47.820;1.930;2023-05-08T06:00:32;101106.00;;;16.99;87.88
33625;BME280;19962;47.820;1.930;2023-05-08T06:02:58;101106.22;;;16.93;88.43
33625;BME280;19962;47.820;1.930;2023-05-08T06:05:24;101106.72;;;16.90;88.57
33625;BME280;19962;47.820;1.930;2023-05-08T06:07:50;101103.66;;;16.86;89.01
33625;BME280;19962;47.820;1.930;2023-05-08T06:10:16;101111.75;;;16.93;89.02
33625;BME280;19962;47.820;1.930;2023-05-08T06:12:42;101119.59;;;17.01;89.25
33625;BME280;19962;47.820;1.930;2023-05-08T06:15:09;101118.53;;;17.02;89.18
33625;BME280;19962;47.820;1.930;2023-05-08T06:17:35;101122.97;;;17.03;89.53
33625;BME280;19962;47.820;1.930;2023-05-08T06:20:02;101120.75;;;17.05;89.65
33625;BME280;19962;47.820;1.930;2023-05-08T06:22:28;101125.00;;;17.12;89.29
33625;BME280;19962;47.820;1.930;2023-05-08T06:24:55;101121.47;;;17.17;89.18
33625;BME280;19962;47.820;1.930;2023-05-08T06:27:22;101129.78;;;17.17;89.37
33625;BME280;19962;47.820;1.930;2023-05-08T06:29:49;101130.91;;;17.16;89.59
33625;BME280;19962;47.820;1.930;2023-05-08T06:32:18;101123.34;;;17.33;88.53
33625;BME280;19962;47.820;1.930;2023-05-08T06:34:45;101128.53;;;17.51;88.13
33625;BME280;19962;47.820;1.930;2023-05-08T06:37:11;101130.53;;;17.56;88.14
33625;BME280;19962;47.820;1.930;2023-05-08T06:39:37;101136.31;;;17.54;87.86
33625;BME280;19962;47.820;1.930;2023-05-08T06:42:03;101131.16;;;17.63;87.52
33625;BME280;19962;47.820;1.930;2023-05-08T06:44:31;101134.03;;;17.73;87.29
33625;BME280;19962;47.820;1.930;2023-05-08T06:46:58;101141.38;;;17.57;87.49
33625;BME280;19962;47.820;1.930;2023-05-08T06:49:24;101150.25;;;17.59;87.86
33625;BME280;19962;47.820;1.930;2023-05-08T06:51:50;101143.97;;;17.69;87.30
33625;BME280;19962;47.820;1.930;2023-05-08T06:54:16;101149.16;;;17.60;88.23
33625;BME280;19962;47.820;1.930;2023-05-08T06:56:42;101148.16;;;17.71;87.96
33625;BME280;19962;47.820;1.930;2023-05-08T06:59:08;101151.63;;;17.83;87.09
33625;BME280;19962;47.820;1.930;2023-05-08T07:01:34;101142.69;;;17.81;86.76
33625;BME280;19962;47.820;1.930;2023-05-08T07:04:02;101151.69;;;17.93;86.04
33625;BME280;19962;47.820;1.930;2023-05-08T07:06:28;101154.00;;;18.01;86.88
33625;BME280;19962;47.820;1.930;2023-05-08T07:08:56;101150.41;;;18.06;87.73
33625;BME280;19962;47.820;1.930;2023-05-08T07:11:22;101154.06;;;18.11;87.47
33625;BME280;19962;47.820;1.930;2023-05-08T07:13:48;101158.47;;;18.07;87.75
33625;BME280;19962;47.820;1.930;2023-05-08T07:16:15;101161.78;;;18.04;87.19
33625;BME280;19962;47.820;1.930;2023-05-08T07:18:41;101159.13;;;18.14;86.77
33625;BME280;19962;47.820;1.930;2023-05-08T07:21:07;101170.69;;;18.06;87.64
33625;BME280;19962;47.820;1.930;2023-05-08T07:23:33;101168.94;;;18.27;86.83
33625;BME280;19962;47.820;1.930;2023-05-08T07:25:59;101171.06;;;18.46;86.02
33625;BME280;19962;47.820;1.930;2023-05-08T07:28:26;101175.88;;;18.61;85.80
33625;BME280;19962;47.820;1.930;2023-05-08T07:30:52;101174.53;;;18.68;85.80
33625;BME280;19962;47.820;1.930;2023-05-08T07:33:18;101181.16;;;18.62;85.23
33625;BME280;19962;47.820;1.930;2023-05-08T07:35:45;101186.38;;;18.54;85.63
33625;BME280;19962;47.820;1.930;2023-05-08T07:38:11;101183.91;;;18.57;85.40
33625;BME280;19962;47.820;1.930;2023-05-08T07:40:37;101188.97;;;18.65;85.13
33625;BME280;19962;47.820;1.930;2023-05-08T07:43:03;101189.59;;;18.72;84.06
33625;BME280;19962;47.820;1.930;2023-05-08T07:45:29;101187.66;;;18.78;84.08
33625;BME280;19962;47.820;1.930;2023-05-08T07:47:57;101186.84;;;18.77;83.85
33625;BME280;19962;47.820;1.930;2023-05-08T07:50:24;101192.63;;;18.71;83.59
33625;BME280;19962;47.820;1.930;2023-05-08T07:52:51;101198.69;;;18.63;83.93
33625;BME280;19962;47.820;1.930;2023-05-08T07:55:18;101204.50;;;18.61;83.47
33625;BME280;19962;47.820;1.930;2023-05-08T07:57:45;101202.34;;;18.68;83.87
33625;BME280;19962;47.820;1.930;2023-05-08T08:00:13;101207.66;;;18.75;83.59
33625;BME280;19962;47.820;1.930;2023-05-08T08:02:40;101208.44;;;18.70;83.58
33625;BME280;19962;47.820;1.930;2023-05-08T08:05:07;101210.91;;;18.62;84.10
33625;BME280;19962;47.820;1.930;2023-05-08T08:07:34;101205.13;;;18.68;83.89
33625;BME280;19962;47.820;1.930;2023-05-08T08:10:00;101206.81;;;18.74;83.52
33625;BME280;19962;47.820;1.930;2023-05-08T08:12:27;101200.97;;;18.71;84.05
33625;BME280;19962;47.820;1.930;2023-05-08T08:14:53;101205.13;;;18.68;83.77
33625;BME280;19962;47.820;1.930;2023-05-08T08:17:19;101200.03;;;18.55;84.17
33625;BME280;19962;47.820;1.930;2023-05-08T08:19:46;101203.97;;;18.64;84.05
33625;BME280;19962;47.820;1.930;2023-05-08T08:22:12;101204.03;;;18.74;83.94
33625;BME280;19962;47.820;1.930;2023-05-08T08:24:38;101204.94;;;18.85;83.67
33625;BME280;19962;47.820;1.930;2023-05-08T08:27:04;101207.72;;;18.85;83.66
33625;BME280;19962;47.820;1.930;2023-05-08T08:29:31;101205.25;;;18.93;83.34
33625;BME280;19962;47.820;1.930;2023-05-08T08:31:57;101208.34;;;18.97;83.07
33625;BME280;19962;47.820;1.930;2023-05-08T08:34:23;101211.44;;;19.05;82.32
33625;BME280;19962;47.820;1.930;2023-05-08T08:36:49;101214.22;;;19.05;82.31
33625;BME280;19962;47.820;1.930;2023-05-08T08:39:15;101201.47;;;19.09;82.24
33625;BME280;19962;47.820;1.930;2023-05-08T08:41:42;101211.53;;;19.20;82.04
33625;BME280;19962;47.820;1.930;2023-05-08T08:44:08;101211.59;;;19.25;81.81
33625;BME280;19962;47.820;1.930;2023-05-08T08:46:34;101210.50;;;19.31;81.34
33625;BME280;19962;47.820;1.930;2023-05-08T08:49:08;101209.41;;;19.37;81.93
33625;BME280;19962;47.820;1.930;2023-05-08T08:51:45;101215.28;;;19.41;81.72
33625;BME280;19962;47.820;1.930;2023-05-08T08:54:19;101211.13;;;19.43;81.91
33625;BME280;19962;47.820;1.930;2023-05-08T08:56:48;101216.44;;;19.50;81.81
33625;BME280;19962;47.820;1.930;2023-05-08T08:59:17;101210.78;;;19.35;82.28
33625;BME280;19962;47.820;1.930;2023-05-08T09:01:46;101214.44;;;19.40;82.10
33625;BME280;19962;47.820;1.930;2023-05-08T09:04:13;101212.78;;;19.44;82.11
33625;BME280;19962;47.820;1.930;2023-05-08T09:06:40;101211.16;;;19.53;81.67
33625;BME280;19962;47.820;1.930;2023-05-08T09:09:06;101208.34;;;19.48;81.36
33625;BME280;19962;47.820;1.930;2023-05-08T09:11:32;101202.19;;;19.36;81.83
33625;BME280;19962;47.820;1.930;2023-05-08T09:14:00;101209.38;;;19.32;81.95
33625;BME280;19962;47.820;1.930;2023-05-08T09:16:28;101208.88;;;19.40;81.47
33625;BME280;19962;47.820;1.930;2023-05-08T09:18:54;101216.69;;;19.48;80.45
33625;BME280;19962;47.820;1.930;2023-05-08T09:21:20;101206.97;;;19.51;81.13
33625;BME280;19962;47.820;1.930;2023-05-08T09:23:59;101205.56;;;19.48;80.68
33625;BME280;19962;47.820;1.930;2023-05-08T09:26:32;101211.13;;;19.43;80.67
33625;BME280;19962;47.820;1.930;2023-05-08T09:31:39;101206.44;;;19.59;79.58
33625;BME280;19962;47.820;1.930;2023-05-08T09:34:10;101203.69;;;19.69;79.08
33625;BME280;19962;47.820;1.930;2023-05-08T09:36:37;101201.75;;;19.79;78.86
33625;BME280;19962;47.820;1.930;2023-05-08T09:39:09;101204.56;;;19.84;78.66
33625;BME280;19962;47.820;1.930;2023-05-08T09:41:59;101204.03;;;19.97;78.32
33625;BME280;19962;47.820;1.930;2023-05-08T09:44:26;101211.28;;;20.08;77.96
33625;BME280;19962;47.820;1.930;2023-05-08T09:47:09;101207.97;;;20.11;77.33
33625;BME280;19962;47.820;1.930;2023-05-08T09:49:36;101212.16;;;20.19;77.41
33625;BME280;19962;47.820;1.930;2023-05-08T09:52:05;101204.91;;;20.23;77.15
33625;BME280;19962;47.820;1.930;2023-05-08T09:54:31;101197.41;;;20.28;77.45
33625;BME280;19962;47.820;1.930;2023-05-08T09:56:57;101189.03;;;20.28;77.02
33625;BME280;19962;47.820;1.930;2023-05-08T09:59:29;101191.53;;;20.30;76.54
33625;BME280;19962;47.820;1.930;2023-05-08T10:01:58;101178.44;;;20.30;76.51
33625;BME280;19962;47.820;1.930;2023-05-08T10:04:31;101179.56;;;20.29;75.46
33625;BME280;19962;47.820;1.930;2023-05-08T10:06:58;101179.56;;;20.29;75.25
33625;BME280;19962;47.820;1.930;2023-05-08T10:09:24;101181.22;;;20.30;75.31
33625;BME280;19962;47.820;1.930;2023-05-08T10:11:51;101182.88;;;20.31;75.21
33625;BME280;19962;47.820;1.930;2023-05-08T10:14:18;101185.69;;;20.36;75.73
33625;BME280;19962;47.820;1.930;2023-05-08T10:16:46;101180.94;;;20.32;75.59
33625;BME280;19962;47.820;1.930;2023-05-08T10:19:21;101185.41;;;20.23;75.60
33625;BME280;19962;47.820;1.930;2023-05-08T10:21:53;101178.97;;;20.12;75.17
33625;BME280;19962;47.820;1.930;2023-05-08T10:24:41;101175.06;;;20.13;74.96
33625;BME280;19962;47.820;1.930;2023-05-08T10:27:37;101166.16;;;20.21;75.36
33625;BME280;19962;47.820;1.930;2023-05-08T10:30:09;101159.78;;;20.31;74.76
33625;BME280;19962;47.820;1.930;2023-05-08T10:32:41;101176.22;;;20.37;74.53
33625;BME280;19962;47.820;1.930;2023-05-08T10:35:10;101175.66;;;20.30;74.65
33625;BME280;19962;47.820;1.930;2023-05-08T10:37:37;101160.03;;;20.34;74.27
33625;BME280;19962;47.820;1.930;2023-05-08T10:40:05;101148.88;;;20.39;73.73
33625;BME280;19962;47.820;1.930;2023-05-08T10:42:33;101157.22;;;20.44;73.73
33625;BME280;19962;47.820;1.930;2023-05-08T10:45:01;101157.78;;;20.51;73.20
33625;BME280;19962;47.820;1.930;2023-05-08T10:47:53;101152.19;;;20.56;73.46
33625;BME280;19962;47.820;1.930;2023-05-08T10:53:19;101145.00;;;20.45;72.45
33625;BME280;19962;47.820;1.930;2023-05-08T10:55:50;101141.06;;;20.51;72.49
33625;BME280;19962;47.820;1.930;2023-05-08T10:58:34;101135.78;;;20.40;71.60
33625;BME280;19962;47.820;1.930;2023-05-08T11:03:41;101133.53;;;20.42;71.94
33625;BME280;19962;47.820;1.930;2023-05-08T11:06:08;101130.50;;;20.33;72.14
33625;BME280;19962;47.820;1.930;2023-05-08T11:08:47;101132.44;;;20.48;72.01
33625;BME280;19962;47.820;1.930;2023-05-08T11:13:52;101115.09;;;20.71;71.64
33625;BME280;19962;47.820;1.930;2023-05-08T11:19:21;101105.91;;;20.65;71.01
33625;BME280;19962;47.820;1.930;2023-05-08T11:22:10;101112.06;;;20.57;70.56
33625;BME280;19962;47.820;1.930;2023-05-08T11:24:46;101112.34;;;20.56;70.91
33625;BME280;19962;47.820;1.930;2023-05-08T11:27:13;101108.75;;;20.45;71.04
33625;BME280;19962;47.820;1.930;2023-05-08T11:29:39;101100.94;;;20.47;71.23
33625;BME280;19962;47.820;1.930;2023-05-08T11:32:05;101090.34;;;20.54;71.33
33625;BME280;19962;47.820;1.930;2023-05-08T11:34:44;101102.84;;;20.62;71.75
33625;BME280;19962;47.820;1.930;2023-05-08T11:37:21;101089.72;;;20.62;71.16
33625;BME280;19962;47.820;1.930;2023-05-08T11:39:49;101083.63;;;20.55;71.10
33625;BME280;19962;47.820;1.930;2023-05-08T11:45:03;101062.91;;;20.86;71.15
33625;BME280;19962;47.820;1.930;2023-05-08T11:47:41;101057.84;;;20.98;70.13
33625;BME280;19962;47.820;1.930;2023-05-08T11:50:09;101048.34;;;20.99;70.96
33625;BME280;19962;47.820;1.930;2023-05-08T11:52:36;101044.50;;;20.90;70.67
33625;BME280;19962;47.820;1.930;2023-05-08T11:55:07;101036.66;;;20.87;71.21
33625;BME280;19962;47.820;1.930;2023-05-08T11:57:34;101037.78;;;20.91;71.51
33625;BME280;19962;47.820;1.930;2023-05-08T12:02:40;101036.94;;;20.91;70.89
33625;BME280;19962;47.820;1.930;2023-05-08T12:05:10;101041.13;;;20.93;70.90
33625;BME280;19962;47.820;1.930;2023-05-08T12:07:46;101042.50;;;21.01;70.71
33625;BME280;19962;47.820;1.930;2023-05-08T12:10:13;101043.81;;;21.13;70.77
33625;BME280;19962;47.820;1.930;2023-05-08T12:12:41;101031.50;;;21.19;70.35
33625;BME280;19962;47.820;1.930;2023-05-08T12:15:12;101034.81;;;21.26;69.99
33625;BME280;19962;47.820;1.930;2023-05-08T12:17:38;101031.97;;;21.31;69.33
33625;BME280;19962;47.820;1.930;2023-05-08T12:20:10;101027.50;;;21.35;69.71
33625;BME280;19962;47.820;1.930;2023-05-08T12:22:41;101043.06;;;21.41;69.86
33625;BME280;19962;47.820;1.930;2023-05-08T12:25:09;101040.63;;;21.30;69.28
33625;BME280;19962;47.820;1.930;2023-05-08T12:27:37;101029.78;;;21.23;69.62
33625;BME280;19962;47.820;1.930;2023-05-08T12:30:11;101035.16;;;21.15;69.77
33625;BME280;19962;47.820;1.930;2023-05-08T12:32:40;101027.34;;;21.12;70.20
33625;BME280;19962;47.820;1.930;2023-05-08T12:35:08;101024.25;;;21.18;70.36
33625;BME280;19962;47.820;1.930;2023-05-08T12:37:35;101020.56;;;21.28;70.50
33625;BME280;19962;47.820;1.930;2023-05-08T12:40:02;101020.78;;;21.36;70.00
33625;BME280;19962;47.820;1.930;2023-05-08T12:43:01;101030.75;;;21.42;70.09
33625;BME280;19962;47.820;1.930;2023-05-08T12:45:33;101020.69;;;21.46;69.58
33625;BME280;19962;47.820;1.930;2023-05-08T12:48:04;101029.38;;;21.40;68.65
33625;BME280;19962;47.820;1.930;2023-05-08T12:50:34;101028.69;;;21.19;68.64
33625;BME280;19962;47.820;1.930;2023-05-08T12:53:05;101032.88;;;21.22;69.34
33625;BME280;19962;47.820;1.930;2023-05-08T12:55:33;101035.38;;;21.23;69.45
33625;BME280;19962;47.820;1.930;2023-05-08T12:58:08;101035.38;;;21.23;69.83
33625;BME280;19962;47.820;1.930;2023-05-08T13:00:49;101037.63;;;21.21;69.25
33625;BME280;19962;47.820;1.930;2023-05-08T13:03:24;101037.59;;;21.26;69.47
33625;BME280;19962;47.820;1.930;2023-05-08T13:05:51;101036.16;;;21.34;69.15
33625;BME280;19962;47.820;1.930;2023-05-08T13:08:18;101045.06;;;21.36;69.05
33625;BME280;19962;47.820;1.930;2023-05-08T13:13:11;101050.91;;;21.39;69.10
33625;BME280;19962;47.820;1.930;2023-05-08T13:15:38;101045.28;;;21.44;69.35
33625;BME280;19962;47.820;1.930;2023-05-08T13:18:04;101040.22;;;21.46;69.88
33625;BME280;19962;47.820;1.930;2023-05-08T13:20:33;101045.53;;;21.48;69.95
33625;BME280;19962;47.820;1.930;2023-05-08T13:22:59;101041.31;;;21.50;70.28
33625;BME280;19962;47.820;1.930;2023-05-08T13:25:25;101037.41;;;21.51;69.57
33625;BME280;19962;47.820;1.930;2023-05-08T13:27:51;101040.19;;;21.51;68.90
33625;BME280;19962;47.820;1.930;2023-05-08T13:30:17;101041.88;;;21.52;68.37
33625;BME280;19962;47.820;1.930;2023-05-08T13:32:43;101037.97;;;21.53;67.64
33625;BME280;19962;47.820;1.930;2023-05-08T13:35:09;101037.34;;;21.61;67.91
33625;BME280;19962;47.820;1.930;2023-05-08T13:37:35;101041.22;;;21.70;67.55
33625;BME280;19962;47.820;1.930;2023-05-08T13:40:01;101045.63;;;21.76;66.91
33625;BME280;19962;47.820;1.930;2023-05-08T13:42:28;101033.31;;;21.77;67.25
33625;BME280;19962;47.820;1.930;2023-05-08T13:44:54;101043.34;;;21.78;66.99
33625;BME280;19962;47.820;1.930;2023-05-08T13:47:20;101034.22;;;21.73;67.05
33625;BME280;19962;47.820;1.930;2023-05-08T13:49:46;101031.16;;;21.64;67.29
33625;BME280;19962;47.820;1.930;2023-05-08T13:52:13;101027.03;;;21.57;67.72
33625;BME280;19962;47.820;1.930;2023-05-08T13:54:39;101024.00;;;21.53;67.83